createdAt,value
2019-04-22T00:00:34.563Z,39.96
2019-04-22T00:03:07.373Z,39.93
2019-04-22T00:05:58.832Z,39.93
2019-04-22T00:08:36.050Z,39.93
2019-04-22T00:11:21.167Z,39.96
2019-04-22T00:13:52.067Z,39.95
2019-04-22T00:16:26.442Z,39.99
2019-04-22T00:21:32.053Z,40.04
2019-04-22T00:24:04.548Z,40.08
2019-04-22T00:26:45.881Z,40.11
2019-04-22T00:29:40.693Z,40.19
2019-04-22T00:31:54.702Z,40.19
2019-04-22T00:34:27.031Z,40.21
2019-04-22T00:37:06.254Z,40.20
2019-04-22T00:39:44.187Z,40.20
2019-04-22T00:42:18.165Z,40.16
2019-04-22T00:44:45.443Z,40.12
2019-04-22T00:47:23.292Z,40.09
2019-04-22T00:50:15.848Z,40.06
2019-04-22T00:55:12.229Z,40.04
2019-04-22T00:57:42.521Z,40.01
2019-04-22T01:00:11.900Z,40.03
2019-04-22T01:02:49.624Z,40.01
2019-04-22T01:05:21.427Z,40.01
2019-04-22T01:08:02.812Z,40.04
2019-04-22T01:10:31.830Z,40.03
2019-04-22T01:13:04.743Z,40.03
2019-04-22T01:15:40.580Z,40.02
2019-04-22T01:18:13.541Z,40.05
2019-04-22T01:21:07.219Z,40.06
2019-04-22T01:23:19.510Z,40.09
2019-04-22T01:25:53.096Z,40.12
2019-04-22T01:28:25.355Z,40.13
2019-04-22T01:30:51.715Z,40.15
2019-04-22T01:33:28.358Z,40.18
2019-04-22T01:36:13.897Z,40.16
2019-04-22T01:38:51.175Z,40.15
2019-04-22T01:41:32.432Z,40.19
2019-04-22T01:44:09.759Z,40.20
2019-04-22T01:46:39.309Z,40.25
2019-04-22T01:49:08.724Z,40.29
2019-04-22T01:51:51.809Z,40.31
2019-04-22T01:54:22.949Z,40.31
2019-04-22T01:56:53.967Z,40.30
2019-04-22T01:59:20.101Z,40.33
2019-04-22T02:02:02.919Z,40.31
2019-04-22T02:04:41.129Z,40.36
2019-04-22T02:07:09.358Z,40.37
2019-04-22T02:09:47.512Z,40.38
2019-04-22T02:12:21.356Z,40.40
2019-04-22T02:14:51.791Z,40.43
2019-04-22T02:17:33.256Z,40.49
2019-04-22T02:20:04.054Z,40.54
2019-04-22T02:22:50.851Z,40.58
2019-04-22T02:25:09.022Z,40.61
2019-04-22T02:27:45.811Z,40.66
2019-04-22T02:30:13.931Z,40.67
2019-04-22T02:33:18.374Z,40.70
2019-04-22T02:35:52.226Z,40.71
2019-04-22T02:38:10.348Z,40.75
2019-04-22T02:40:56.377Z,40.77
2019-04-22T02:43:28.288Z,40.77
2019-04-22T02:46:10.681Z,40.76
2019-04-22T02:48:33.986Z,40.77
2019-04-22T02:51:06.176Z,40.77
2019-04-22T02:54:11.922Z,40.81
2019-04-22T02:56:22.996Z,40.82
2019-04-22T03:01:23.461Z,40.77
2019-04-22T03:11:34.113Z,40.78
2019-04-22T03:16:37.773Z,40.82
2019-04-22T03:21:47.001Z,40.87
2019-04-22T03:26:58.483Z,40.93
2019-04-22T03:33:05.951Z,41.12
2019-04-22T03:35:37.134Z,41.35
2019-04-22T03:40:43.264Z,41.53
2019-04-22T03:45:44.924Z,41.70
2019-04-22T03:48:07.991Z,41.70
2019-04-22T03:50:36.513Z,41.73
2019-04-22T03:53:38.472Z,41.75
2019-04-22T03:55:53.111Z,41.81
2019-04-22T03:58:26.254Z,41.94
2019-04-22T04:01:21.035Z,41.83
2019-04-22T04:03:40.456Z,41.85
2019-04-22T04:06:05.406Z,41.84
2019-04-22T04:08:38.891Z,41.86
2019-04-22T04:11:24.586Z,41.94
2019-04-22T04:14:05.282Z,41.93
2019-04-22T04:16:32.590Z,41.94
2019-04-22T04:19:07.722Z,41.93
2019-04-22T04:27:08.644Z,41.92
2019-04-22T04:32:16.503Z,41.96
2019-04-22T04:34:48.211Z,42.04
2019-04-22T04:37:07.035Z,42.16
2019-04-22T04:39:47.784Z,42.21
2019-04-22T04:42:25.547Z,42.26
2019-04-22T04:44:59.198Z,42.33
2019-04-22T04:47:32.837Z,42.33
2019-04-22T04:49:57.406Z,42.34
2019-04-22T04:52:39.154Z,42.34
2019-04-22T04:55:12.396Z,42.29
2019-04-22T04:57:46.863Z,42.26
2019-04-22T05:02:55.882Z,42.28
2019-04-22T05:05:16.777Z,42.36
2019-04-22T05:07:55.378Z,42.39
2019-04-22T05:13:18.335Z,42.61
2019-04-22T05:15:38.024Z,42.67
2019-04-22T05:18:22.305Z,42.72
2019-04-22T05:20:53.403Z,42.64
2019-04-22T05:23:20.682Z,42.58
2019-04-22T05:25:41.391Z,42.60
2019-04-22T05:28:19.871Z,42.76
2019-04-22T05:30:55.683Z,42.66
2019-04-22T05:33:32.093Z,42.54
2019-04-22T05:36:10.179Z,42.47
2019-04-22T05:38:39.865Z,42.30
2019-04-22T05:41:10.148Z,42.23
2019-04-22T05:43:50.211Z,42.17
2019-04-22T05:46:22.682Z,42.03
2019-04-22T05:48:59.742Z,42.00
2019-04-22T05:51:31.242Z,42.01
2019-04-22T05:54:12.702Z,41.84
2019-04-22T05:56:37.299Z,41.67
2019-04-22T05:59:15.902Z,41.60
2019-04-22T06:04:36.820Z,41.13
2019-04-22T06:06:57.169Z,40.48
2019-04-22T06:09:30.146Z,40.38
2019-04-22T06:12:04.911Z,40.34
2019-04-22T06:14:40.363Z,40.03
2019-04-22T06:17:24.645Z,39.98
2019-04-22T06:20:00.643Z,39.87
2019-04-22T06:22:37.587Z,39.74
2019-04-22T06:25:12.611Z,39.63
2019-04-22T06:27:44.285Z,39.32
2019-04-22T06:30:17.300Z,39.18
2019-04-22T06:32:51.850Z,39.11
2019-04-22T06:35:34.464Z,38.93
2019-04-22T06:40:32.813Z,38.97
2019-04-22T06:45:52.991Z,39.00
2019-04-22T06:50:47.767Z,38.58
2019-04-22T06:53:25.595Z,38.48
2019-04-22T06:55:59.731Z,38.42
2019-04-22T06:58:28.998Z,38.18
2019-04-22T07:01:06.166Z,38.15
2019-04-22T07:03:47.649Z,37.99
2019-04-22T07:06:12.635Z,37.96
2019-04-22T07:11:18.771Z,37.93
2019-04-22T07:14:00.229Z,37.86
2019-04-22T07:16:31.999Z,37.78
2019-04-22T07:19:04.243Z,37.86
2019-04-22T07:21:37.336Z,37.74
2019-04-22T07:24:27.688Z,37.68
2019-04-22T07:26:44.903Z,37.37
2019-04-22T07:29:21.709Z,37.23
2019-04-22T07:32:11.685Z,37.07
2019-04-22T07:34:48.875Z,37.16
2019-04-22T07:37:22.731Z,37.06
2019-04-22T07:39:40.983Z,36.90
2019-04-22T07:42:12.440Z,36.84
2019-04-22T07:44:50.976Z,36.89
2019-04-22T07:47:25.754Z,36.75
2019-04-22T07:49:59.190Z,36.69
2019-04-22T07:52:34.881Z,36.98
2019-04-22T07:55:02.124Z,37.18
2019-04-22T07:57:36.542Z,37.38
2019-04-22T08:00:16.016Z,37.43
2019-04-22T08:02:50.554Z,37.34
2019-04-22T08:05:24.886Z,37.30
2019-04-22T08:08:07.837Z,37.10
2019-04-22T08:13:11.448Z,37.15
2019-04-22T08:15:50.827Z,37.26
2019-04-22T08:18:17.700Z,37.29
2019-04-22T08:20:55.471Z,37.16
2019-04-22T08:23:33.616Z,37.29
2019-04-22T08:26:00.964Z,37.11
2019-04-22T08:28:42.790Z,37.03
2019-04-22T08:31:14.922Z,36.80
2019-04-22T08:33:46.647Z,37.02
2019-04-22T08:36:50.770Z,37.16
2019-04-22T08:46:57.716Z,37.10
2019-04-22T08:49:10.511Z,37.06
2019-04-22T08:51:49.469Z,37.09
2019-04-22T08:54:24.512Z,37.17
2019-04-22T08:56:58.285Z,37.27
2019-04-22T08:59:32.625Z,37.04
2019-04-22T09:02:17.442Z,37.03
2019-04-22T09:04:36.950Z,36.89
2019-04-22T09:07:20.672Z,36.76
2019-04-22T09:09:51.438Z,36.83
2019-04-22T09:12:34.671Z,36.79
2019-04-22T09:14:49.322Z,37.02
2019-04-22T09:17:37.910Z,37.15
2019-04-22T09:20:11.275Z,37.08
2019-04-22T09:22:41.056Z,37.00
2019-04-22T09:25:17.126Z,36.90
2019-04-22T09:27:49.761Z,36.95
2019-04-22T09:30:30.625Z,36.99
2019-04-22T09:33:02.874Z,36.92
2019-04-22T09:35:37.418Z,37.03
2019-04-22T09:40:50.086Z,37.16
2019-04-22T09:43:26.452Z,37.19
2019-04-22T09:45:53.265Z,37.23
2019-04-22T09:48:30.111Z,37.28
2019-04-22T09:51:03.748Z,37.28
2019-04-22T09:53:39.628Z,37.32
2019-04-22T09:56:13.682Z,37.34
2019-04-22T09:58:44.616Z,37.41
2019-04-22T10:06:35.543Z,37.54
2019-04-22T10:09:25.942Z,37.49
2019-04-22T10:11:40.733Z,37.53
2019-04-22T10:14:19.121Z,37.46
2019-04-22T10:19:16.776Z,37.40
2019-04-22T10:21:57.314Z,37.44
2019-04-22T10:24:29.623Z,37.40
2019-04-22T10:27:02.129Z,37.44
2019-04-22T10:29:43.890Z,37.24
2019-04-22T10:32:06.848Z,37.28
2019-04-22T10:34:34.016Z,37.26
2019-04-22T10:37:00.003Z,37.22
2019-04-22T10:39:41.071Z,37.28
2019-04-22T10:42:07.040Z,37.25
2019-04-22T10:44:39.617Z,37.33
2019-04-22T10:47:12.102Z,37.28
2019-04-22T10:49:44.808Z,37.27
2019-04-22T10:52:18.480Z,37.07
2019-04-22T10:54:53.613Z,37.03
2019-04-22T10:57:27.591Z,37.02
2019-04-22T11:00:00.870Z,37.07
2019-04-22T11:02:33.512Z,37.16
2019-04-22T11:05:06.383Z,37.13
2019-04-22T11:07:44.026Z,37.17
2019-04-22T11:10:29.093Z,37.11
2019-04-22T11:12:49.363Z,37.10
2019-04-22T11:15:22.494Z,37.17
2019-04-22T11:17:56.005Z,37.03
2019-04-22T11:20:29.217Z,37.19
2019-04-22T11:23:02.664Z,37.17
2019-04-22T11:25:36.174Z,37.09
2019-04-22T11:28:09.806Z,37.08
2019-04-22T11:30:44.610Z,37.13
2019-04-22T11:33:18.404Z,37.08
2019-04-22T11:35:52.142Z,37.10
2019-04-22T11:38:24.890Z,37.19
2019-04-22T11:40:58.164Z,37.11
2019-04-22T11:43:36.189Z,37.16
2019-04-22T11:46:11.432Z,37.30
2019-04-22T11:48:47.619Z,37.25
2019-04-22T11:51:27.483Z,37.24
2019-04-22T11:54:02.911Z,37.26
2019-04-22T11:56:36.976Z,37.23
2019-04-22T11:59:12.651Z,37.13
2019-04-22T12:01:46.644Z,37.03
2019-04-22T12:04:20.176Z,37.09
2019-04-22T12:06:54.018Z,37.11
2019-04-22T12:09:27.878Z,37.16
2019-04-22T12:12:00.585Z,37.13
2019-04-22T12:14:34.087Z,37.02
2019-04-22T12:17:07.719Z,37.00
2019-04-22T12:19:40.390Z,37.05
2019-04-22T12:22:13.253Z,37.05
2019-04-22T12:24:48.161Z,36.98
2019-04-22T12:27:22.827Z,36.96
2019-04-22T12:29:56.618Z,36.97
2019-04-22T12:32:29.728Z,37.09
2019-04-22T12:35:05.343Z,37.19
2019-04-22T12:37:46.760Z,37.14
2019-04-22T12:40:25.980Z,37.17
2019-04-22T12:42:49.056Z,37.22
2019-04-22T12:45:24.548Z,37.17
2019-04-22T12:47:57.903Z,37.12
2019-04-22T12:50:34.897Z,37.17
2019-04-22T12:53:10.466Z,37.12
2019-04-22T12:55:39.650Z,37.09
2019-04-22T12:58:12.078Z,37.13
2019-04-22T13:00:45.115Z,37.13
2019-04-22T13:03:18.238Z,37.07
2019-04-22T13:05:51.503Z,37.09
2019-04-22T13:08:25.450Z,37.12
2019-04-22T13:11:06.074Z,37.12
2019-04-22T13:13:34.401Z,37.18
2019-04-22T13:16:07.023Z,37.25
2019-04-22T13:18:47.334Z,37.24
2019-04-22T13:21:15.005Z,37.26
2019-04-22T13:23:48.707Z,37.27
2019-04-22T13:26:21.384Z,37.25
2019-04-22T13:28:54.800Z,37.29
2019-04-22T13:31:28.700Z,37.21
2019-04-22T13:34:03.572Z,37.20
2019-04-22T13:36:36.648Z,37.18
2019-04-22T13:39:11.289Z,37.20
2019-04-22T13:41:50.266Z,37.20
2019-04-22T13:44:18.972Z,37.24
2019-04-22T13:49:59.723Z,37.24
2019-04-22T13:52:40.007Z,37.21
2019-04-22T13:53:53.504Z,37.20
2019-04-22T13:55:00.366Z,37.28
2019-04-22T13:57:24.884Z,37.35
2019-04-22T13:59:48.952Z,37.44
2019-04-22T14:02:34.768Z,37.50
2019-04-22T14:05:08.607Z,37.52
2019-04-22T14:07:41.240Z,37.54
2019-04-22T14:10:16.424Z,37.58
2019-04-22T14:12:48.986Z,37.64
2019-04-22T14:15:24.290Z,37.65
2019-04-22T14:17:57.215Z,37.65
2019-04-22T14:20:31.391Z,37.62
2019-04-22T14:23:05.978Z,37.62
2019-04-22T14:25:38.679Z,37.62
2019-04-22T14:28:16.926Z,37.65
2019-04-22T14:30:46.404Z,37.71
2019-04-22T14:33:20.321Z,37.75
2019-04-22T14:35:52.869Z,37.80
2019-04-22T14:38:25.932Z,37.83
2019-04-22T14:41:00.553Z,37.91
2019-04-22T14:44:00.652Z,37.94
2019-04-22T14:46:35.000Z,38.00
2019-04-22T14:49:06.512Z,38.10
2019-04-22T14:51:43.043Z,38.11
2019-04-22T14:54:09.824Z,38.09
2019-04-22T14:56:26.556Z,38.06
2019-04-22T14:58:58.937Z,38.03
2019-04-22T15:01:32.932Z,38.06
2019-04-22T15:04:05.514Z,38.09
2019-04-22T15:06:40.070Z,38.07
2019-04-22T15:09:14.439Z,38.09
2019-04-22T15:12:00.748Z,38.11
2019-04-22T15:14:21.596Z,38.15
2019-04-22T15:17:11.290Z,38.19
2019-04-22T15:20:03.490Z,38.19
2019-04-22T15:22:36.910Z,38.20
2019-04-22T15:25:10.430Z,38.28
2019-04-22T15:27:43.487Z,38.35
2019-04-22T15:30:17.192Z,38.37
2019-04-22T15:32:51.497Z,38.35
2019-04-22T15:35:25.254Z,38.44
2019-04-22T15:37:59.007Z,38.49
2019-04-22T15:40:31.702Z,38.50
2019-04-22T15:43:04.732Z,38.52
2019-04-22T15:45:39.014Z,38.49
2019-04-22T15:48:11.808Z,38.53
2019-04-22T15:50:44.733Z,38.55
2019-04-22T15:53:20.078Z,38.56
2019-04-22T15:55:58.689Z,38.58
2019-04-22T15:58:35.565Z,38.59
2019-04-22T16:01:15.054Z,38.59
2019-04-22T16:03:42.855Z,38.61
2019-04-22T16:06:15.746Z,38.66
2019-04-22T16:08:49.842Z,38.71
2019-04-22T16:11:22.384Z,38.73
2019-04-22T16:13:55.035Z,38.73
2019-04-22T16:16:28.373Z,38.75
2019-04-22T16:19:02.368Z,38.83
2019-04-22T16:21:45.189Z,38.83
2019-04-22T16:24:38.179Z,38.88
2019-04-22T16:27:16.487Z,38.95
2019-04-22T16:29:49.750Z,38.97
2019-04-22T16:32:23.511Z,39.11
2019-04-22T16:34:56.549Z,39.13
2019-04-22T16:37:48.607Z,39.14
2019-04-22T16:40:21.215Z,39.13
2019-04-22T16:42:58.624Z,39.14
2019-04-22T16:45:29.727Z,39.13
2019-04-22T16:48:04.064Z,39.11
2019-04-22T16:50:38.329Z,39.11
2019-04-22T16:53:12.439Z,39.12
2019-04-22T16:55:46.642Z,39.13
2019-04-22T16:58:19.081Z,39.17
2019-04-22T17:00:52.481Z,39.18
2019-04-22T17:03:56.643Z,39.25
2019-04-22T17:06:35.210Z,39.28
2019-04-22T17:09:10.946Z,39.30
2019-04-22T17:11:43.940Z,39.33
2019-04-22T17:14:20.466Z,39.32
2019-04-22T17:16:50.690Z,39.33
2019-04-22T17:19:23.654Z,39.36
2019-04-22T17:21:57.470Z,39.44
2019-04-22T17:24:30.175Z,39.51
2019-04-22T17:27:02.605Z,39.54
2019-04-22T17:29:36.598Z,39.56
2019-04-22T17:32:14.012Z,39.58
2019-04-22T17:34:43.683Z,39.59
2019-04-22T17:37:22.161Z,39.61
2019-04-22T17:40:05.785Z,39.61
2019-04-22T17:42:46.195Z,39.61
2019-04-22T17:45:33.865Z,39.62
2019-04-22T17:48:16.882Z,39.60
2019-04-22T17:50:59.684Z,39.64
2019-04-22T17:53:37.864Z,39.65
2019-04-22T17:56:12.133Z,39.69
2019-04-22T17:58:43.558Z,39.69
2019-04-22T18:01:20.680Z,39.69
2019-04-22T18:03:39.148Z,39.74
2019-04-22T18:06:17.578Z,39.74
2019-04-22T18:09:01.745Z,39.76
2019-04-22T18:11:42.926Z,39.75
2019-04-22T18:14:26.054Z,39.75
2019-04-22T18:16:48.857Z,39.74
2019-04-22T18:19:15.594Z,39.75
2019-04-22T18:21:47.669Z,39.78
2019-04-22T18:24:15.710Z,39.77
2019-04-22T18:27:07.196Z,39.79
2019-04-22T18:29:33.093Z,39.82
2019-04-22T18:32:01.157Z,39.85
2019-04-22T18:34:34.844Z,39.84
2019-04-22T18:37:12.819Z,39.90
2019-04-22T18:39:52.607Z,39.93
2019-04-22T18:42:23.886Z,39.92
2019-04-22T18:45:12.811Z,39.96
2019-04-22T18:47:32.231Z,39.97
2019-04-22T18:50:10.575Z,39.97
2019-04-22T18:52:54.503Z,39.97
2019-04-22T18:55:51.615Z,39.97
2019-04-22T18:58:27.504Z,40.04
2019-04-22T19:00:45.940Z,40.04
2019-04-22T19:03:25.822Z,40.06
2019-04-22T19:06:25.924Z,40.07
2019-04-22T19:08:50.291Z,40.04
2019-04-22T19:11:22.314Z,40.06
2019-04-22T19:14:03.702Z,40.07
2019-04-22T19:19:29.348Z,40.06
2019-04-22T19:21:38.056Z,40.07
2019-04-22T19:24:09.012Z,40.09
2019-04-22T19:29:20.446Z,40.10
2019-04-22T19:31:56.906Z,40.12
2019-04-22T19:34:25.648Z,40.09
2019-04-22T19:37:03.607Z,40.13
2019-04-22T19:39:40.939Z,40.13
2019-04-22T19:42:25.296Z,40.18
2019-04-22T19:44:49.013Z,40.21
2019-04-22T19:50:09.866Z,40.25
2019-04-22T19:52:33.423Z,40.25
2019-04-22T19:55:13.790Z,40.30
2019-04-22T19:57:43.359Z,40.29
2019-04-22T20:00:36.444Z,40.29
2019-04-22T20:03:36.360Z,40.31
2019-04-22T20:06:13.053Z,40.32
2019-04-22T20:08:42.371Z,40.34
2019-04-22T20:11:16.724Z,40.35
2019-04-22T20:13:56.833Z,40.37
2019-04-22T20:16:25.556Z,40.41
2019-04-22T20:19:05.147Z,40.48
2019-04-22T20:21:35.719Z,40.49
2019-04-22T20:23:57.145Z,40.49
2019-04-22T20:26:51.340Z,40.50
2019-04-22T20:29:27.014Z,40.49
2019-04-22T20:31:53.103Z,40.52
2019-04-22T20:34:32.094Z,40.55
2019-04-22T20:39:39.459Z,40.64
2019-04-22T20:42:22.790Z,40.70
2019-04-22T20:44:46.116Z,40.73
2019-04-22T20:47:16.603Z,40.76
2019-04-22T20:49:57.205Z,40.83
2019-04-22T20:52:34.512Z,40.85
2019-04-22T20:55:00.076Z,40.87
2019-04-22T20:57:35.313Z,40.91
2019-04-22T21:00:06.156Z,40.95
2019-04-22T21:02:32.743Z,40.96
2019-04-22T21:05:02.747Z,41.00
2019-04-22T21:07:49.887Z,41.00
2019-04-22T21:10:18.506Z,41.00
2019-04-22T21:12:56.650Z,41.01
2019-04-22T21:15:40.304Z,41.02
2019-04-22T21:18:05.491Z,41.03
2019-04-22T21:20:43.360Z,41.04
2019-04-22T21:23:17.897Z,41.06
2019-04-22T21:25:43.119Z,41.09
2019-04-22T21:28:31.205Z,41.11
2019-04-22T21:30:57.194Z,41.15
2019-04-22T21:33:25.486Z,41.15
2019-04-22T21:36:13.800Z,41.19
2019-04-22T21:38:42.453Z,41.24
2019-04-22T21:41:17.700Z,41.28
2019-04-22T21:43:50.288Z,41.32
2019-04-22T21:46:27.852Z,41.34
2019-04-22T21:49:00.206Z,41.37
2019-04-22T21:51:39.914Z,41.39
2019-04-22T21:54:11.989Z,41.46
2019-04-22T21:57:11.343Z,41.50
2019-04-22T21:59:30.089Z,41.51
2019-04-22T22:02:11.883Z,41.53
2019-04-22T22:04:44.113Z,41.53
2019-04-22T22:07:09.716Z,41.53
2019-04-22T22:09:53.932Z,41.55
2019-04-22T22:12:29.893Z,41.53
2019-04-22T22:15:06.947Z,41.56
2019-04-22T22:17:38.285Z,41.58
2019-04-22T22:20:13.347Z,41.63
2019-04-22T22:22:52.192Z,41.65
2019-04-22T22:25:23.672Z,41.68
2019-04-22T22:27:53.342Z,41.69
2019-04-22T22:33:05.503Z,41.76
2019-04-22T22:35:37.284Z,41.78
2019-04-22T22:38:11.924Z,41.80
2019-04-22T22:40:32.336Z,41.83
2019-04-22T22:43:14.487Z,41.85
2019-04-22T22:45:43.804Z,41.89
2019-04-22T22:48:36.803Z,41.90
2019-04-22T22:51:06.592Z,41.88
2019-04-22T22:53:44.470Z,41.94
2019-04-22T22:56:19.063Z,41.95
2019-04-22T22:58:52.423Z,41.97
2019-04-22T23:01:23.368Z,41.98
2019-04-22T23:03:57.670Z,42.00
2019-04-22T23:06:38.626Z,42.03
2019-04-22T23:09:09.783Z,42.04
2019-04-22T23:11:56.840Z,42.04
2019-04-22T23:14:17.650Z,42.08
2019-04-22T23:16:37.633Z,42.09
2019-04-22T23:19:06.968Z,42.10
2019-04-22T23:21:45.531Z,42.16
2019-04-22T23:24:45.425Z,42.19
2019-04-22T23:27:29.391Z,42.24
2019-04-22T23:30:04.073Z,42.26
2019-04-22T23:32:38.848Z,42.28
2019-04-22T23:35:33.888Z,42.29
2019-04-22T23:38:07.386Z,42.32
2019-04-22T23:40:42.900Z,42.33
2019-04-22T23:45:57.942Z,42.36
2019-04-22T23:48:25.235Z,42.38
2019-04-22T23:51:03.395Z,42.39
2019-04-22T23:53:57.993Z,42.44
2019-04-22T23:56:07.896Z,42.46
2019-04-22T23:58:56.846Z,42.48
